Kasilof, AK (99610)

5:09 PM AKDT on September 16, 2014 (GMT -0800)
W. Corral PWS | Change Station
CLOSE
Current Station
Personal Weather Station
Location: Soldotna, AK
Elevation: 110 ft
Nearby Weather Stations

Elev 110 ft 60.49 °N, 151.08 °W | Updated 5 seconds ago

Overcast
Overcast
54.7 °F
Feels Like 54.7 °F
N
0.7
Wind Variable Wind from North
Gusts 0.7 mph

Today
High -- | Low -- °F
--% Chance of Precip.
Yesterday
High -- | Low -- °F
Precip. -- in
7:34 AM 8:21 PM
Last Quarter, 41% visible
Pressure 29.67 in
Visibility 10.0 miles
Clouds Mostly Cloudy 6500 ft
Overcast 8000 ft
Dew Point 54 °F
Humidity 97%
Rainfall 0.07 in
Snow Depth 3 in , 0 in , 10 in
UV 1 out of 12
Pollen Not available.
Air Quality Not available.
Flu Activity Not available.
METAR PASX 170056Z AUTO 00000KT 10SM BKN065 OVC080 12/09 A2967 RMK AO1 P0002

More Conditions Fewer Conditions

Pressure 29.67 in
Visibility 10.0 miles
Clouds Mostly Cloudy 6500 ft
Overcast 8000 ft
Dew Point 54 °F
Humidity 97%
Rainfall 0.07 in
Snow Depth 3 in , 0 in , 10 in
UV 1 out of 12
Pollen Not available.
Air Quality Not available.
Flu Activity Not available.
METAR PASX 170056Z AUTO 00000KT 10SM BKN065 OVC080 12/09 A2967 RMK AO1 P0002

More Conditions Fewer Conditions

10-Day Weather Forecast

Almanac

Astronomy

Sep. 16, 2014 Rise Set
Actual Time 7:34 AM AKDT 8:21 PM AKDT
Civil Twilight 6:51 AM AKDT 9:04 PM AKDT
Nautical Twilight 5:59 AM AKDT 9:56 PM AKDT
Astronomical Twilight 4:59 AM AKDT 10:55 PM AKDT
Moon No Moon Rise 5:03 PM AKDT (9/16)
Length of Visible Light 14h 12m
Length of Day
12h 47m
Tomorrow will be 5m 29s shorter.
Last Quarter, 41% of the Moon is Illuminated
Today
Last Quarter
Sep 24
New
Oct 1
First Quarter
Oct 8
Full
Oct 15
Last Quarter

Today's Extremes

State Highs State Lows

Community

WunderPhotos

Upload Photos

1,753,942 photos uploaded!

Nearby

Snow Depth

Station Depth Elevation
Atigun Pass 3 in 4800 ft
Fort Yukon 0 in 430 ft
Grandview 10 in 1100 ft
Munson Ridge 1 in 3100 ft
Turnagain Pass 1 in 1880 ft

Earthquake Activity

City Distance Mag. Time & Date
No recent earthquake activity has been reported nearby.
Minimum magnitude displayed is 2.5.

Coastal Water Temperatures

Place Temperature
No Stations Reporting

Nearby Weather Stations